sensor_id;sensor_type;location;lat;lon;timestamp;temperature;humidity
13610;DHT22;6876;50.788;4.940;2023-05-16T00:00:08;10.80;99.90
13610;DHT22;6876;50.788;4.940;2023-05-16T00:02:56;10.80;99.90
13610;DHT22;6876;50.788;4.940;2023-05-16T00:05:43;10.80;99.90
13610;DHT22;6876;50.788;4.940;2023-05-16T00:08:31;10.70;99.90
13610;DHT22;6876;50.788;4.940;2023-05-16T00:11:20;10.70;99.90
13610;DHT22;6876;50.788;4.940;2023-05-16T00:14:08;10.60;99.90
13610;DHT22;6876;50.788;4.940;2023-05-16T00:16:56;10.60;99.90
13610;DHT22;6876;50.788;4.940;2023-05-16T00:19:44;10.50;1.00
13610;DHT22;6876;50.788;4.940;2023-05-16T00:22:33;10.50;1.00
13610;DHT22;6876;50.788;4.940;2023-05-16T00:25:21;10.50;99.90
13610;DHT22;6876;50.788;4.940;2023-05-16T00:28:10;10.60;1.00
13610;DHT22;6876;50.788;4.940;2023-05-16T00:30:57;10.50;99.90
13610;DHT22;6876;50.788;4.940;2023-05-16T00:33:45;10.50;1.00
13610;DHT22;6876;50.788;4.940;2023-05-16T00:36:32;10.50;1.00
13610;DHT22;6876;50.788;4.940;2023-05-16T00:39:20;10.60;1.00
13610;DHT22;6876;50.788;4.940;2023-05-16T00:42:08;10.50;1.00
13610;DHT22;6876;50.788;4.940;2023-05-16T00:44:56;10.40;26.40
13610;DHT22;6876;50.788;4.940;2023-05-16T00:47:44;10.40;99.90
13610;DHT22;6876;50.788;4.940;2023-05-16T00:50:32;10.30;99.90
13610;DHT22;6876;50.788;4.940;2023-05-16T00:53:20;10.20;99.90
13610;DHT22;6876;50.788;4.940;2023-05-16T00:56:07;10.00;1.00
13610;DHT22;6876;50.788;4.940;2023-05-16T00:58:55;9.90;1.00
13610;DHT22;6876;50.788;4.940;2023-05-16T01:01:45;9.80;1.00
13610;DHT22;6876;50.788;4.940;2023-05-16T01:04:32;9.70;1.00
13610;DHT22;6876;50.788;4.940;2023-05-16T01:07:20;9.70;1.00
13610;DHT22;6876;50.788;4.940;2023-05-16T01:10:08;9.60;1.00
13610;DHT22;6876;50.788;4.940;2023-05-16T01:13:00;9.50;16.50
13610;DHT22;6876;50.788;4.940;2023-05-16T01:16:01;9.50;34.00
13610;DHT22;6876;50.788;4.940;2023-05-16T01:18:58;9.40;99.90
13610;DHT22;6876;50.788;4.940;2023-05-16T01:21:56;9.40;99.90
13610;DHT22;6876;50.788;4.940;2023-05-16T01:24:53;9.30;99.90
13610;DHT22;6876;50.788;4.940;2023-05-16T01:27:48;9.20;99.90
13610;DHT22;6876;50.788;4.940;2023-05-16T01:30:38;9.10;99.90
13610;DHT22;6876;50.788;4.940;2023-05-16T01:33:26;9.10;99.90
13610;DHT22;6876;50.788;4.940;2023-05-16T01:36:20;9.00;99.90
13610;DHT22;6876;50.788;4.940;2023-05-16T01:39:14;9.00;1.00
13610;DHT22;6876;50.788;4.940;2023-05-16T01:42:06;8.90;1.00
13610;DHT22;6876;50.788;4.940;2023-05-16T01:44:59;8.80;1.00
13610;DHT22;6876;50.788;4.940;2023-05-16T01:47:54;8.80;1.00
13610;DHT22;6876;50.788;4.940;2023-05-16T01:50:46;8.70;1.00
13610;DHT22;6876;50.788;4.940;2023-05-16T01:53:37;8.70;1.00
13610;DHT22;6876;50.788;4.940;2023-05-16T01:56:25;8.70;1.00
13610;DHT22;6876;50.788;4.940;2023-05-16T01:59:14;8.70;1.00
13610;DHT22;6876;50.788;4.940;2023-05-16T02:02:03;8.70;1.00
13610;DHT22;6876;50.788;4.940;2023-05-16T02:04:51;8.60;1.00
13610;DHT22;6876;50.788;4.940;2023-05-16T02:07:38;8.60;1.00
13610;DHT22;6876;50.788;4.940;2023-05-16T02:10:26;8.50;1.00
13610;DHT22;6876;50.788;4.940;2023-05-16T02:13:13;8.60;1.00
13610;DHT22;6876;50.788;4.940;2023-05-16T02:16:01;8.60;99.90
13610;DHT22;6876;50.788;4.940;2023-05-16T02:18:50;8.50;99.90
13610;DHT22;6876;50.788;4.940;2023-05-16T02:21:38;8.50;99.90
13610;DHT22;6876;50.788;4.940;2023-05-16T02:24:25;8.40;1.00
13610;DHT22;6876;50.788;4.940;2023-05-16T02:27:12;8.40;1.00
13610;DHT22;6876;50.788;4.940;2023-05-16T02:30:00;8.40;99.90
13610;DHT22;6876;50.788;4.940;2023-05-16T02:32:47;8.40;99.90
13610;DHT22;6876;50.788;4.940;2023-05-16T02:35:36;8.30;99.90
13610;DHT22;6876;50.788;4.940;2023-05-16T02:38:23;8.30;99.90
13610;DHT22;6876;50.788;4.940;2023-05-16T02:41:11;8.20;1.00
13610;DHT22;6876;50.788;4.940;2023-05-16T02:43:58;8.20;1.00
13610;DHT22;6876;50.788;4.940;2023-05-16T02:46:45;8.10;1.00
13610;DHT22;6876;50.788;4.940;2023-05-16T02:49:33;8.10;1.00
13610;DHT22;6876;50.788;4.940;2023-05-16T02:52:21;8.10;1.00
13610;DHT22;6876;50.788;4.940;2023-05-16T02:55:09;8.00;1.00
13610;DHT22;6876;50.788;4.940;2023-05-16T02:57:57;8.00;1.00
13610;DHT22;6876;50.788;4.940;2023-05-16T03:00:44;8.00;1.00
13610;DHT22;6876;50.788;4.940;2023-05-16T03:03:32;8.00;1.00
13610;DHT22;6876;50.788;4.940;2023-05-16T03:06:20;8.00;1.00
13610;DHT22;6876;50.788;4.940;2023-05-16T03:09:09;7.90;1.00
13610;DHT22;6876;50.788;4.940;2023-05-16T03:11:56;7.90;1.00
13610;DHT22;6876;50.788;4.940;2023-05-16T03:14:44;7.90;1.00
13610;DHT22;6876;50.788;4.940;2023-05-16T03:17:31;7.90;1.00
13610;DHT22;6876;50.788;4.940;2023-05-16T03:20:19;7.90;1.00
13610;DHT22;6876;50.788;4.940;2023-05-16T03:23:06;7.80;1.00
13610;DHT22;6876;50.788;4.940;2023-05-16T03:25:55;7.80;1.00
13610;DHT22;6876;50.788;4.940;2023-05-16T03:28:42;7.70;1.00
13610;DHT22;6876;50.788;4.940;2023-05-16T03:31:31;7.70;1.00
13610;DHT22;6876;50.788;4.940;2023-05-16T03:34:18;7.70;1.00
13610;DHT22;6876;50.788;4.940;2023-05-16T03:37:06;7.70;1.00
13610;DHT22;6876;50.788;4.940;2023-05-16T03:39:55;7.70;1.00
13610;DHT22;6876;50.788;4.940;2023-05-16T03:42:44;7.70;1.00
13610;DHT22;6876;50.788;4.940;2023-05-16T03:45:32;7.60;1.00
13610;DHT22;6876;50.788;4.940;2023-05-16T03:48:19;7.70;1.00
13610;DHT22;6876;50.788;4.940;2023-05-16T03:51:06;7.70;1.00
13610;DHT22;6876;50.788;4.940;2023-05-16T03:53:54;7.60;1.00
13610;DHT22;6876;50.788;4.940;2023-05-16T03:56:41;7.60;1.00
13610;DHT22;6876;50.788;4.940;2023-05-16T03:59:30;7.60;1.00
13610;DHT22;6876;50.788;4.940;2023-05-16T04:02:19;7.60;1.00
13610;DHT22;6876;50.788;4.940;2023-05-16T04:05:07;7.60;1.00
13610;DHT22;6876;50.788;4.940;2023-05-16T04:07:55;7.70;1.00
13610;DHT22;6876;50.788;4.940;2023-05-16T04:10:43;7.60;1.00
13610;DHT22;6876;50.788;4.940;2023-05-16T04:13:30;7.70;1.00
13610;DHT22;6876;50.788;4.940;2023-05-16T04:16:19;7.70;1.00
13610;DHT22;6876;50.788;4.940;2023-05-16T04:19:06;7.70;1.00
13610;DHT22;6876;50.788;4.940;2023-05-16T04:21:53;7.70;1.00
13610;DHT22;6876;50.788;4.940;2023-05-16T04:24:41;7.80;1.00
13610;DHT22;6876;50.788;4.940;2023-05-16T04:27:28;7.80;1.00
13610;DHT22;6876;50.788;4.940;2023-05-16T04:30:16;7.70;1.00
13610;DHT22;6876;50.788;4.940;2023-05-16T04:33:05;7.80;1.00
13610;DHT22;6876;50.788;4.940;2023-05-16T04:35:52;7.80;1.00
13610;DHT22;6876;50.788;4.940;2023-05-16T04:38:40;8.00;1.00
13610;DHT22;6876;50.788;4.940;2023-05-16T04:41:27;8.60;1.00
13610;DHT22;6876;50.788;4.940;2023-05-16T04:44:15;9.30;99.90
13610;DHT22;6876;50.788;4.940;2023-05-16T04:47:02;9.90;1.00
13610;DHT22;6876;50.788;4.940;2023-05-16T04:49:52;10.40;1.00
13610;DHT22;6876;50.788;4.940;2023-05-16T04:52:39;10.70;31.80
13610;DHT22;6876;50.788;4.940;2023-05-16T04:55:26;11.00;99.90
13610;DHT22;6876;50.788;4.940;2023-05-16T04:58:13;11.30;99.90
13610;DHT22;6876;50.788;4.940;2023-05-16T05:01:01;11.40;1.00
13610;DHT22;6876;50.788;4.940;2023-05-16T05:03:49;11.70;1.00
13610;DHT22;6876;50.788;4.940;2023-05-16T05:06:38;11.90;99.90
13610;DHT22;6876;50.788;4.940;2023-05-16T05:09:26;12.20;1.00
13610;DHT22;6876;50.788;4.940;2023-05-16T05:12:13;12.60;1.00
13610;DHT22;6876;50.788;4.940;2023-05-16T05:15:00;12.90;1.00
13610;DHT22;6876;50.788;4.940;2023-05-16T05:17:48;13.20;99.90
13610;DHT22;6876;50.788;4.940;2023-05-16T05:20:36;13.50;99.90
13610;DHT22;6876;50.788;4.940;2023-05-16T05:23:24;13.80;99.90
13610;DHT22;6876;50.788;4.940;2023-05-16T05:26:12;13.90;99.90
13610;DHT22;6876;50.788;4.940;2023-05-16T05:28:59;14.00;8.40
13610;DHT22;6876;50.788;4.940;2023-05-16T05:31:49;14.40;54.40
13610;DHT22;6876;50.788;4.940;2023-05-16T05:34:37;14.80;1.00
13610;DHT22;6876;50.788;4.940;2023-05-16T05:37:25;15.10;1.00
13610;DHT22;6876;50.788;4.940;2023-05-16T05:40:14;15.20;1.00
13610;DHT22;6876;50.788;4.940;2023-05-16T05:43:02;15.50;1.00
13610;DHT22;6876;50.788;4.940;2023-05-16T05:45:49;15.70;1.00
13610;DHT22;6876;50.788;4.940;2023-05-16T05:48:37;16.00;1.00
13610;DHT22;6876;50.788;4.940;2023-05-16T05:51:24;16.20;1.00
13610;DHT22;6876;50.788;4.940;2023-05-16T05:54:12;16.40;1.00
13610;DHT22;6876;50.788;4.940;2023-05-16T05:57:00;16.40;1.00
13610;DHT22;6876;50.788;4.940;2023-05-16T05:59:48;17.20;1.00
13610;DHT22;6876;50.788;4.940;2023-05-16T06:02:35;17.20;1.00
13610;DHT22;6876;50.788;4.940;2023-05-16T06:05:23;17.10;1.00
13610;DHT22;6876;50.788;4.940;2023-05-16T06:08:10;17.00;99.90
13610;DHT22;6876;50.788;4.940;2023-05-16T06:10:58;17.50;99.90
13610;DHT22;6876;50.788;4.940;2023-05-16T06:13:47;17.60;99.90
13610;DHT22;6876;50.788;4.940;2023-05-16T06:16:35;17.70;99.90
13610;DHT22;6876;50.788;4.940;2023-05-16T06:19:24;17.50;99.90
13610;DHT22;6876;50.788;4.940;2023-05-16T06:22:11;17.50;99.90
13610;DHT22;6876;50.788;4.940;2023-05-16T06:24:59;17.60;99.90
13610;DHT22;6876;50.788;4.940;2023-05-16T06:27:46;18.00;99.90
13610;DHT22;6876;50.788;4.940;2023-05-16T06:30:35;18.40;99.90
13610;DHT22;6876;50.788;4.940;2023-05-16T06:33:22;18.40;99.90
13610;DHT22;6876;50.788;4.940;2023-05-16T06:36:10;18.30;99.90
13610;DHT22;6876;50.788;4.940;2023-05-16T06:38:57;18.50;99.90
13610;DHT22;6876;50.788;4.940;2023-05-16T06:41:44;19.10;99.90
13610;DHT22;6876;50.788;4.940;2023-05-16T06:44:32;19.20;99.90
13610;DHT22;6876;50.788;4.940;2023-05-16T06:47:20;19.30;99.90
13610;DHT22;6876;50.788;4.940;2023-05-16T06:50:08;18.20;99.90
13610;DHT22;6876;50.788;4.940;2023-05-16T06:52:56;19.10;99.90
13610;DHT22;6876;50.788;4.940;2023-05-16T06:55:43;19.80;99.90
13610;DHT22;6876;50.788;4.940;2023-05-16T06:58:31;19.40;99.90
13610;DHT22;6876;50.788;4.940;2023-05-16T07:01:18;18.70;99.90
13610;DHT22;6876;50.788;4.940;2023-05-16T07:04:07;19.30;99.90
13610;DHT22;6876;50.788;4.940;2023-05-16T07:06:54;19.40;99.90
13610;DHT22;6876;50.788;4.940;2023-05-16T07:09:42;19.70;99.90
13610;DHT22;6876;50.788;4.940;2023-05-16T07:12:29;18.90;99.90
13610;DHT22;6876;50.788;4.940;2023-05-16T07:15:16;19.00;99.90
13610;DHT22;6876;50.788;4.940;2023-05-16T07:18:04;18.90;99.90
13610;DHT22;6876;50.788;4.940;2023-05-16T07:20:53;18.80;99.90
13610;DHT22;6876;50.788;4.940;2023-05-16T07:23:40;18.50;99.90
13610;DHT22;6876;50.788;4.940;2023-05-16T07:26:27;18.50;99.90
13610;DHT22;6876;50.788;4.940;2023-05-16T07:29:15;17.80;99.90
13610;DHT22;6876;50.788;4.940;2023-05-16T07:32:02;18.20;99.90
13610;DHT22;6876;50.788;4.940;2023-05-16T07:34:49;17.80;99.90
13610;DHT22;6876;50.788;4.940;2023-05-16T07:37:38;17.60;99.90
13610;DHT22;6876;50.788;4.940;2023-05-16T07:40:27;17.70;99.90
13610;DHT22;6876;50.788;4.940;2023-05-16T07:43:14;18.20;99.90
13610;DHT22;6876;50.788;4.940;2023-05-16T07:46:02;18.50;99.90
13610;DHT22;6876;50.788;4.940;2023-05-16T07:48:49;19.00;99.90
13610;DHT22;6876;50.788;4.940;2023-05-16T07:51:37;19.30;99.90
13610;DHT22;6876;50.788;4.940;2023-05-16T07:54:25;19.70;99.90
13610;DHT22;6876;50.788;4.940;2023-05-16T07:57:13;19.20;99.90
13610;DHT22;6876;50.788;4.940;2023-05-16T08:00:01;18.20;99.90
13610;DHT22;6876;50.788;4.940;2023-05-16T08:02:49;18.10;99.90
13610;DHT22;6876;50.788;4.940;2023-05-16T08:05:38;19.40;99.90
13610;DHT22;6876;50.788;4.940;2023-05-16T08:08:25;20.00;99.90
13610;DHT22;6876;50.788;4.940;2023-05-16T08:11:14;19.40;99.90
13610;DHT22;6876;50.788;4.940;2023-05-16T08:14:01;20.30;96.50
13610;DHT22;6876;50.788;4.940;2023-05-16T08:16:49;20.20;59.50
13610;DHT22;6876;50.788;4.940;2023-05-16T08:19:36;19.80;45.40
13610;DHT22;6876;50.788;4.940;2023-05-16T08:22:24;18.50;58.30
13610;DHT22;6876;50.788;4.940;2023-05-16T08:25:11;17.20;84.20
13610;DHT22;6876;50.788;4.940;2023-05-16T08:28:00;16.40;99.90
13610;DHT22;6876;50.788;4.940;2023-05-16T08:30:47;15.90;99.90
13610;DHT22;6876;50.788;4.940;2023-05-16T08:33:35;15.80;99.90
13610;DHT22;6876;50.788;4.940;2023-05-16T08:36:22;15.70;99.90
13610;DHT22;6876;50.788;4.940;2023-05-16T08:39:11;15.90;99.90
13610;DHT22;6876;50.788;4.940;2023-05-16T08:41:59;16.20;99.90
13610;DHT22;6876;50.788;4.940;2023-05-16T08:44:47;17.60;99.90
13610;DHT22;6876;50.788;4.940;2023-05-16T08:47:35;19.20;99.90
13610;DHT22;6876;50.788;4.940;2023-05-16T08:50:28;18.70;99.90
13610;DHT22;6876;50.788;4.940;2023-05-16T08:53:21;19.00;99.90
13610;DHT22;6876;50.788;4.940;2023-05-16T08:56:10;19.10;99.90
13610;DHT22;6876;50.788;4.940;2023-05-16T08:58:59;21.00;94.50
13610;DHT22;6876;50.788;4.940;2023-05-16T09:01:48;22.50;47.10
13610;DHT22;6876;50.788;4.940;2023-05-16T09:04:36;22.50;46.30
13610;DHT22;6876;50.788;4.940;2023-05-16T09:07:23;22.20;46.20
13610;DHT22;6876;50.788;4.940;2023-05-16T09:10:11;22.10;46.10
13610;DHT22;6876;50.788;4.940;2023-05-16T09:13:00;22.20;45.20
13610;DHT22;6876;50.788;4.940;2023-05-16T09:16:07;22.50;46.20
13610;DHT22;6876;50.788;4.940;2023-05-16T09:18:57;22.60;46.80
13610;DHT22;6876;50.788;4.940;2023-05-16T09:21:44;23.00;46.80
13610;DHT22;6876;50.788;4.940;2023-05-16T09:24:32;23.80;45.10
13610;DHT22;6876;50.788;4.940;2023-05-16T09:27:19;24.00;27.20
13610;DHT22;6876;50.788;4.940;2023-05-16T09:30:09;22.20;26.60
13610;DHT22;6876;50.788;4.940;2023-05-16T09:32:56;20.10;43.50
13610;DHT22;6876;50.788;4.940;2023-05-16T09:35:45;19.30;43.70
13610;DHT22;6876;50.788;4.940;2023-05-16T09:38:32;19.30;44.20
13610;DHT22;6876;50.788;4.940;2023-05-16T09:41:21;19.60;45.30
13610;DHT22;6876;50.788;4.940;2023-05-16T09:44:08;20.10;43.60
13610;DHT22;6876;50.788;4.940;2023-05-16T09:46:55;19.30;44.20
13610;DHT22;6876;50.788;4.940;2023-05-16T09:49:43;18.80;45.10
13610;DHT22;6876;50.788;4.940;2023-05-16T09:52:32;18.90;44.00
13610;DHT22;6876;50.788;4.940;2023-05-16T09:55:21;18.30;45.70
13610;DHT22;6876;50.788;4.940;2023-05-16T09:58:09;18.10;43.90
13610;DHT22;6876;50.788;4.940;2023-05-16T10:00:56;18.40;45.50
13610;DHT22;6876;50.788;4.940;2023-05-16T10:03:44;19.10;46.50
13610;DHT22;6876;50.788;4.940;2023-05-16T10:06:31;20.00;46.70
13610;DHT22;6876;50.788;4.940;2023-05-16T10:09:21;20.90;46.10
13610;DHT22;6876;50.788;4.940;2023-05-16T10:12:12;20.60;46.30
13610;DHT22;6876;50.788;4.940;2023-05-16T10:15:00;21.00;46.20
13610;DHT22;6876;50.788;4.940;2023-05-16T10:17:49;20.80;43.40
13610;DHT22;6876;50.788;4.940;2023-05-16T10:20:38;21.00;43.10
13610;DHT22;6876;50.788;4.940;2023-05-16T10:23:27;20.80;29.20
13610;DHT22;6876;50.788;4.940;2023-05-16T10:26:17;20.70;33.40
13610;DHT22;6876;50.788;4.940;2023-05-16T10:29:04;20.70;26.40
13610;DHT22;6876;50.788;4.940;2023-05-16T10:31:52;20.00;16.80
13610;DHT22;6876;50.788;4.940;2023-05-16T10:34:40;19.10;38.50
13610;DHT22;6876;50.788;4.940;2023-05-16T10:37:29;19.00;40.60
13610;DHT22;6876;50.788;4.940;2023-05-16T10:40:17;19.90;46.10
13610;DHT22;6876;50.788;4.940;2023-05-16T10:43:07;20.90;29.10
13610;DHT22;6876;50.788;4.940;2023-05-16T10:45:55;21.00;15.70
13610;DHT22;6876;50.788;4.940;2023-05-16T10:48:43;21.50;13.70
13610;DHT22;6876;50.788;4.940;2023-05-16T10:51:35;21.80;9.80
13610;DHT22;6876;50.788;4.940;2023-05-16T10:54:36;21.50;12.90
13610;DHT22;6876;50.788;4.940;2023-05-16T10:57:24;20.60;7.30
13610;DHT22;6876;50.788;4.940;2023-05-16T11:00:21;20.00;25.90
13610;DHT22;6876;50.788;4.940;2023-05-16T11:03:21;19.80;14.10
13610;DHT22;6876;50.788;4.940;2023-05-16T11:06:12;19.90;9.70
13610;DHT22;6876;50.788;4.940;2023-05-16T11:09:17;20.30;14.30
13610;DHT22;6876;50.788;4.940;2023-05-16T11:12:08;20.80;8.80
13610;DHT22;6876;50.788;4.940;2023-05-16T11:14:57;20.60;1.00
13610;DHT22;6876;50.788;4.940;2023-05-16T11:17:46;20.20;1.00
13610;DHT22;6876;50.788;4.940;2023-05-16T11:20:35;20.00;1.00
13610;DHT22;6876;50.788;4.940;2023-05-16T11:23:24;19.70;1.00
13610;DHT22;6876;50.788;4.940;2023-05-16T11:26:12;20.20;1.00
13610;DHT22;6876;50.788;4.940;2023-05-16T11:29:00;19.50;1.00
13610;DHT22;6876;50.788;4.940;2023-05-16T11:31:48;19.40;1.00
13610;DHT22;6876;50.788;4.940;2023-05-16T11:34:38;19.40;1.00
13610;DHT22;6876;50.788;4.940;2023-05-16T11:37:25;19.40;1.00
13610;DHT22;6876;50.788;4.940;2023-05-16T11:40:13;18.90;1.00
13610;DHT22;6876;50.788;4.940;2023-05-16T11:43:02;18.70;1.00
13610;DHT22;6876;50.788;4.940;2023-05-16T11:45:53;18.20;1.00
13610;DHT22;6876;50.788;4.940;2023-05-16T11:48:41;17.80;1.00
13610;DHT22;6876;50.788;4.940;2023-05-16T11:51:32;18.40;1.00
13610;DHT22;6876;50.788;4.940;2023-05-16T11:54:20;19.20;1.00
13610;DHT22;6876;50.788;4.940;2023-05-16T11:57:08;19.60;1.00
13610;DHT22;6876;50.788;4.940;2023-05-16T12:00:01;19.20;1.00
13610;DHT22;6876;50.788;4.940;2023-05-16T12:02:52;19.00;1.00
13610;DHT22;6876;50.788;4.940;2023-05-16T12:05:49;18.50;1.00
13610;DHT22;6876;50.788;4.940;2023-05-16T12:08:38;18.10;1.00
13610;DHT22;6876;50.788;4.940;2023-05-16T12:11:25;18.10;1.00
13610;DHT22;6876;50.788;4.940;2023-05-16T12:14:13;18.20;1.00
13610;DHT22;6876;50.788;4.940;2023-05-16T12:17:01;18.70;1.00
13610;DHT22;6876;50.788;4.940;2023-05-16T12:19:49;19.00;1.00
13610;DHT22;6876;50.788;4.940;2023-05-16T12:22:38;19.20;1.00
13610;DHT22;6876;50.788;4.940;2023-05-16T12:25:28;18.80;1.00
13610;DHT22;6876;50.788;4.940;2023-05-16T12:28:16;18.80;1.00
13610;DHT22;6876;50.788;4.940;2023-05-16T12:31:10;19.00;1.00
13610;DHT22;6876;50.788;4.940;2023-05-16T12:34:05;18.90;1.00
13610;DHT22;6876;50.788;4.940;2023-05-16T12:37:01;19.10;1.00
13610;DHT22;6876;50.788;4.940;2023-05-16T12:39:49;19.10;1.00
13610;DHT22;6876;50.788;4.940;2023-05-16T12:42:38;19.30;1.00
13610;DHT22;6876;50.788;4.940;2023-05-16T12:45:26;18.90;1.00
13610;DHT22;6876;50.788;4.940;2023-05-16T12:48:13;18.70;1.00
13610;DHT22;6876;50.788;4.940;2023-05-16T12:51:10;18.30;1.00
13610;DHT22;6876;50.788;4.940;2023-05-16T12:54:07;18.40;1.00
13610;DHT22;6876;50.788;4.940;2023-05-16T12:56:54;18.80;1.00
13610;DHT22;6876;50.788;4.940;2023-05-16T12:59:43;18.70;1.00
13610;DHT22;6876;50.788;4.940;2023-05-16T13:02:31;19.00;1.00
13610;DHT22;6876;50.788;4.940;2023-05-16T13:05:18;18.90;1.00
13610;DHT22;6876;50.788;4.940;2023-05-16T13:08:08;18.90;1.00
13610;DHT22;6876;50.788;4.940;2023-05-16T13:10:55;18.40;1.00
13610;DHT22;6876;50.788;4.940;2023-05-16T13:13:43;18.50;1.00
13610;DHT22;6876;50.788;4.940;2023-05-16T13:16:31;18.60;1.00
13610;DHT22;6876;50.788;4.940;2023-05-16T13:19:19;19.00;1.00
13610;DHT22;6876;50.788;4.940;2023-05-16T13:22:07;18.70;1.00
13610;DHT22;6876;50.788;4.940;2023-05-16T13:24:55;18.60;1.00
13610;DHT22;6876;50.788;4.940;2023-05-16T13:27:42;18.50;1.00
13610;DHT22;6876;50.788;4.940;2023-05-16T13:30:29;18.60;1.00
13610;DHT22;6876;50.788;4.940;2023-05-16T13:33:18;18.80;1.00
13610;DHT22;6876;50.788;4.940;2023-05-16T13:36:06;18.60;1.00
13610;DHT22;6876;50.788;4.940;2023-05-16T13:38:53;18.70;1.00
13610;DHT22;6876;50.788;4.940;2023-05-16T13:41:41;18.60;1.00
13610;DHT22;6876;50.788;4.940;2023-05-16T13:44:28;18.50;1.00
13610;DHT22;6876;50.788;4.940;2023-05-16T13:47:16;18.40;1.00
13610;DHT22;6876;50.788;4.940;2023-05-16T13:50:05;18.10;1.00
13610;DHT22;6876;50.788;4.940;2023-05-16T13:52:55;18.30;1.00
13610;DHT22;6876;50.788;4.940;2023-05-16T13:55:42;18.40;1.00
13610;DHT22;6876;50.788;4.940;2023-05-16T13:58:29;18.50;1.00
13610;DHT22;6876;50.788;4.940;2023-05-16T14:01:17;18.30;1.00
13610;DHT22;6876;50.788;4.940;2023-05-16T14:04:04;18.20;1.00
13610;DHT22;6876;50.788;4.940;2023-05-16T14:06:53;18.20;1.00
13610;DHT22;6876;50.788;4.940;2023-05-16T14:09:41;18.00;1.00
13610;DHT22;6876;50.788;4.940;2023-05-16T14:12:29;17.90;1.00
13610;DHT22;6876;50.788;4.940;2023-05-16T14:15:17;18.00;1.00
13610;DHT22;6876;50.788;4.940;2023-05-16T14:18:04;18.00;1.00
13610;DHT22;6876;50.788;4.940;2023-05-16T14:20:52;18.00;1.00
13610;DHT22;6876;50.788;4.940;2023-05-16T14:23:42;17.90;1.00
13610;DHT22;6876;50.788;4.940;2023-05-16T14:26:30;17.60;1.00
13610;DHT22;6876;50.788;4.940;2023-05-16T14:29:17;17.80;1.00
13610;DHT22;6876;50.788;4.940;2023-05-16T14:32:05;17.90;1.00
13610;DHT22;6876;50.788;4.940;2023-05-16T14:34:53;17.90;1.00
13610;DHT22;6876;50.788;4.940;2023-05-16T14:37:40;18.20;1.00
13610;DHT22;6876;50.788;4.940;2023-05-16T14:40:29;18.30;1.00
13610;DHT22;6876;50.788;4.940;2023-05-16T14:43:16;18.10;1.00
13610;DHT22;6876;50.788;4.940;2023-05-16T14:46:04;17.70;1.00
13610;DHT22;6876;50.788;4.940;2023-05-16T14:48:51;17.40;1.00
13610;DHT22;6876;50.788;4.940;2023-05-16T14:51:39;17.60;1.00
13610;DHT22;6876;50.788;4.940;2023-05-16T14:54:26;18.00;1.00
13610;DHT22;6876;50.788;4.940;2023-05-16T14:57:14;18.50;1.00
13610;DHT22;6876;50.788;4.940;2023-05-16T15:00:02;18.60;1.00
13610;DHT22;6876;50.788;4.940;2023-05-16T15:02:50;18.60;1.00
13610;DHT22;6876;50.788;4.940;2023-05-16T15:05:37;18.70;1.00
13610;DHT22;6876;50.788;4.940;2023-05-16T15:08:25;18.50;1.00
13610;DHT22;6876;50.788;4.940;2023-05-16T15:11:12;18.30;1.00
13610;DHT22;6876;50.788;4.940;2023-05-16T15:14:01;18.10;6.00
13610;DHT22;6876;50.788;4.940;2023-05-16T15:16:48;17.90;1.00
13610;DHT22;6876;50.788;4.940;2023-05-16T15:19:35;17.70;1.00
13610;DHT22;6876;50.788;4.940;2023-05-16T15:22:23;17.50;1.00
13610;DHT22;6876;50.788;4.940;2023-05-16T15:25:10;17.30;1.00
13610;DHT22;6876;50.788;4.940;2023-05-16T15:27:58;17.00;1.00
13610;DHT22;6876;50.788;4.940;2023-05-16T15:30:46;17.00;1.00
13610;DHT22;6876;50.788;4.940;2023-05-16T15:33:34;17.00;1.00
13610;DHT22;6876;50.788;4.940;2023-05-16T15:36:21;17.10;5.70
13610;DHT22;6876;50.788;4.940;2023-05-16T15:39:08;17.50;1.00
13610;DHT22;6876;50.788;4.940;2023-05-16T15:41:56;17.60;1.00
13610;DHT22;6876;50.788;4.940;2023-05-16T15:44:43;17.40;1.00
13610;DHT22;6876;50.788;4.940;2023-05-16T15:47:32;17.50;1.00
13610;DHT22;6876;50.788;4.940;2023-05-16T15:50:20;17.50;5.60
13610;DHT22;6876;50.788;4.940;2023-05-16T15:53:07;17.30;6.90
13610;DHT22;6876;50.788;4.940;2023-05-16T15:55:54;17.20;20.60
13610;DHT22;6876;50.788;4.940;2023-05-16T15:58:42;17.20;11.60
13610;DHT22;6876;50.788;4.940;2023-05-16T16:01:31;16.80;9.30
13610;DHT22;6876;50.788;4.940;2023-05-16T16:04:20;16.80;10.70
13610;DHT22;6876;50.788;4.940;2023-05-16T16:07:08;16.80;9.60
13610;DHT22;6876;50.788;4.940;2023-05-16T16:09:56;16.70;7.00
13610;DHT22;6876;50.788;4.940;2023-05-16T16:12:57;16.70;7.50
13610;DHT22;6876;50.788;4.940;2023-05-16T16:15:44;16.70;11.50
13610;DHT22;6876;50.788;4.940;2023-05-16T16:18:32;16.70;20.80
13610;DHT22;6876;50.788;4.940;2023-05-16T16:21:20;16.90;24.00
13610;DHT22;6876;50.788;4.940;2023-05-16T16:24:08;17.20;24.10
13610;DHT22;6876;50.788;4.940;2023-05-16T16:26:56;17.10;20.70
13610;DHT22;6876;50.788;4.940;2023-05-16T16:29:43;16.80;19.90
13610;DHT22;6876;50.788;4.940;2023-05-16T16:32:31;16.80;23.90
13610;DHT22;6876;50.788;4.940;2023-05-16T16:35:18;16.90;16.40
13610;DHT22;6876;50.788;4.940;2023-05-16T16:38:07;17.00;25.70
13610;DHT22;6876;50.788;4.940;2023-05-16T16:40:54;17.00;15.20
13610;DHT22;6876;50.788;4.940;2023-05-16T16:43:41;17.30;25.50
13610;DHT22;6876;50.788;4.940;2023-05-16T16:46:29;17.40;22.20
13610;DHT22;6876;50.788;4.940;2023-05-16T16:49:16;17.60;23.70
13610;DHT22;6876;50.788;4.940;2023-05-16T16:52:04;17.70;22.60
13610;DHT22;6876;50.788;4.940;2023-05-16T16:54:53;17.70;14.90
13610;DHT22;6876;50.788;4.940;2023-05-16T16:57:40;17.70;24.60
13610;DHT22;6876;50.788;4.940;2023-05-16T17:00:27;17.40;28.00
13610;DHT22;6876;50.788;4.940;2023-05-16T17:03:16;17.10;34.30
13610;DHT22;6876;50.788;4.940;2023-05-16T17:06:04;17.10;27.40
13610;DHT22;6876;50.788;4.940;2023-05-16T17:08:51;16.80;23.20
13610;DHT22;6876;50.788;4.940;2023-05-16T17:11:40;16.70;12.30
13610;DHT22;6876;50.788;4.940;2023-05-16T17:14:27;16.40;12.60
13610;DHT22;6876;50.788;4.940;2023-05-16T17:17:15;16.20;12.60
13610;DHT22;6876;50.788;4.940;2023-05-16T17:20:02;16.20;25.50
13610;DHT22;6876;50.788;4.940;2023-05-16T17:23:00;16.20;25.10
13610;DHT22;6876;50.788;4.940;2023-05-16T17:25:47;16.10;25.50
13610;DHT22;6876;50.788;4.940;2023-05-16T17:28:36;16.20;24.30
13610;DHT22;6876;50.788;4.940;2023-05-16T17:31:24;16.30;25.30
13610;DHT22;6876;50.788;4.940;2023-05-16T17:34:12;16.30;31.70
13610;DHT22;6876;50.788;4.940;2023-05-16T17:36:59;16.50;32.70
13610;DHT22;6876;50.788;4.940;2023-05-16T17:39:47;16.40;33.40
13610;DHT22;6876;50.788;4.940;2023-05-16T17:42:34;16.40;28.30
13610;DHT22;6876;50.788;4.940;2023-05-16T17:45:23;16.30;27.60
13610;DHT22;6876;50.788;4.940;2023-05-16T17:48:11;16.20;29.30
13610;DHT22;6876;50.788;4.940;2023-05-16T17:50:59;16.30;27.70
13610;DHT22;6876;50.788;4.940;2023-05-16T17:53:46;16.30;34.30
13610;DHT22;6876;50.788;4.940;2023-05-16T17:56:35;16.30;40.80
13610;DHT22;6876;50.788;4.940;2023-05-16T17:59:22;15.90;37.50
13610;DHT22;6876;50.788;4.940;2023-05-16T18:02:13;15.80;37.00
13610;DHT22;6876;50.788;4.940;2023-05-16T18:05:02;15.70;39.60
13610;DHT22;6876;50.788;4.940;2023-05-16T18:07:49;15.60;38.80
13610;DHT22;6876;50.788;4.940;2023-05-16T18:10:38;15.40;37.10
13610;DHT22;6876;50.788;4.940;2023-05-16T18:13:26;15.20;38.00